Time;durP1;ratioP1;P1;durP2;ratioP2;P2;SDS_P1;SDS_P2;PMS_P1;PMS_P2;Temp;Humidity;BMP_temperature;BMP_pressure;BME280_temperature;BME280_humidity;BME280_pressure;Samples;Min_cycle;Max_cycle;Signal;HPM_P1;HPM_P2
2022/05/14 00:01:15;;;;;;;5.60;3.00;;;12.00;99.90;;;;;;5088683;28;20655;-86
2022/05/14 00:03:42;;;;;;;4.23;2.70;;;12.00;99.90;;;;;;5081897;28;20647;-87
2022/05/14 00:06:12;;;;;;;5.97;3.30;;;12.00;99.90;;;;;;5081879;28;20636;-86
2022/05/14 00:08:40;;;;;;;5.30;2.77;;;11.70;99.90;;;;;;5085570;28;20956;-87
2022/05/14 00:13:55;;;;;;;3.30;2.40;;;11.70;99.90;;;;;;5084423;28;20635;-86
2022/05/14 00:16:23;;;;;;;7.47;3.30;;;11.50;99.90;;;;;;5083418;28;20636;-86
2022/05/14 00:18:51;;;;;;;4.30;2.73;;;11.90;99.90;;;;;;5087366;28;20624;-86
2022/05/14 00:21:20;;;;;;;5.30;3.60;;;12.00;99.90;;;;;;5084613;28;20744;-86
2022/05/14 00:23:48;;;;;;;4.57;2.90;;;11.40;99.90;;;;;;5085347;28;20638;-86
2022/05/14 00:26:16;;;;;;;8.03;3.40;;;11.80;99.90;;;;;;5087747;28;20659;-86
2022/05/14 00:28:43;;;;;;;8.30;4.20;;;11.40;99.90;;;;;;5084365;28;20628;-86
2022/05/14 00:31:10;;;;;;;3.57;3.10;;;11.70;99.90;;;;;;5085593;28;21091;-86
2022/05/14 00:33:37;;;;;;;6.53;3.03;;;11.40;99.90;;;;;;5083927;28;21114;-86
2022/05/14 00:36:05;;;;;;;3.53;2.67;;;11.70;99.90;;;;;;5088739;28;20608;-87
2022/05/14 00:38:32;;;;;;;4.87;3.23;;;11.70;99.90;;;;;;5082046;28;20627;-86
2022/05/14 00:41:03;;;;;;;4.93;2.87;;;11.50;99.90;;;;;;5083808;28;21034;-86
2022/05/14 00:43:31;;;;;;;5.73;3.00;;;11.70;99.90;;;;;;5085311;28;20623;-85
2022/05/14 00:46:04;;;;;;;6.40;3.23;;;11.40;99.90;;;;;;5081660;28;20628;-86
2022/05/14 00:48:37;;;;;;;4.13;3.20;;;11.30;99.90;;;;;;5085108;28;20620;-85
2022/05/14 00:51:04;;;;;;;6.13;2.90;;;11.50;99.90;;;;;;5088103;28;20679;-86
2022/05/14 00:53:36;;;;;;;4.67;3.30;;;11.30;99.90;;;;;;5081292;28;20671;-86
2022/05/14 00:56:06;;;;;;;3.40;3.10;;;11.10;99.90;;;;;;5080970;28;20624;-86
2022/05/14 00:58:39;;;;;;;4.30;2.97;;;11.10;99.90;;;;;;5087798;28;20608;-86
2022/05/14 01:01:07;;;;;;;3.40;2.70;;;11.20;99.90;;;;;;5084883;28;20655;-86
2022/05/14 01:03:33;;;;;;;5.07;3.27;;;11.00;99.90;;;;;;5083703;28;20716;-86
2022/05/14 01:06:03;;;;;;;3.97;2.73;;;11.20;99.90;;;;;;5083606;28;20624;-86
2022/05/14 01:08:31;;;;;;;3.20;2.90;;;11.50;99.90;;;;;;5086987;28;20659;-86
2022/05/14 01:10:58;;;;;;;6.10;3.70;;;11.10;99.90;;;;;;5086397;28;20663;-85
2022/05/14 01:13:28;;;;;;;3.20;2.70;;;11.30;99.90;;;;;;5088525;28;20643;-85
2022/05/14 01:15:56;;;;;;;4.00;3.00;;;11.30;99.90;;;;;;5082892;28;20620;-85
2022/05/14 01:18:26;;;;;;;3.77;3.03;;;11.30;99.90;;;;;;5083182;28;20624;-85
2022/05/14 01:20:57;;;;;;;6.33;3.30;;;10.90;99.90;;;;;;5083552;28;20656;-85
2022/05/14 01:23:33;;;;;;;3.17;2.87;;;11.10;99.90;;;;;;5083839;28;20631;-85
2022/05/14 01:26:30;;;;;;;5.23;3.30;;;11.00;99.90;;;;;;5083487;28;20652;-85
2022/05/14 01:28:59;;;;;;;4.00;3.70;;;11.20;99.90;;;;;;5080191;28;20749;-85
2022/05/14 01:31:27;;;;;;;3.60;3.30;;;10.80;99.90;;;;;;5083687;28;20652;-84
2022/05/14 01:33:54;;;;;;;5.97;3.53;;;11.20;99.90;;;;;;5082333;28;20764;-85
2022/05/14 01:36:21;;;;;;;4.73;3.63;;;11.10;99.90;;;;;;5083515;28;20639;-84
2022/05/14 01:38:48;;;;;;;5.53;3.20;;;10.80;99.90;;;;;;5083070;28;21193;-84
2022/05/14 01:41:17;;;;;;;9.43;4.30;;;10.80;99.90;;;;;;5082209;28;20651;-85
2022/05/14 01:43:43;;;;;;;3.80;3.50;;;10.80;99.90;;;;;;5083096;28;20730;-85
2022/05/14 01:46:10;;;;;;;5.93;3.80;;;11.10;99.90;;;;;;5078021;28;20640;-85
2022/05/14 01:48:37;;;;;;;5.80;3.37;;;10.60;99.90;;;;;;5081475;28;20631;-85
2022/05/14 01:51:04;;;;;;;5.83;3.33;;;10.60;99.90;;;;;;5087428;28;20652;-85
2022/05/14 01:53:31;;;;;;;6.70;4.40;;;10.80;99.90;;;;;;5078016;28;20933;-85
2022/05/14 01:55:58;;;;;;;3.60;3.30;;;11.00;99.90;;;;;;5085206;28;20623;-85
2022/05/14 01:58:39;;;;;;;6.30;3.30;;;10.80;99.90;;;;;;5086721;28;20628;-85
2022/05/14 02:01:15;;;;;;;4.60;4.20;;;10.90;99.90;;;;;;5082746;28;20699;-86
2022/05/14 02:03:44;;;;;;;6.17;3.87;;;10.50;99.90;;;;;;5084615;28;20623;-85
2022/05/14 02:06:11;;;;;;;4.80;3.70;;;10.60;99.90;;;;;;5081668;28;20728;-85
2022/05/14 02:08:38;;;;;;;8.20;3.93;;;10.70;99.90;;;;;;5083714;28;21193;-84
2022/05/14 02:11:05;;;;;;;3.57;3.27;;;10.50;99.90;;;;;;5085469;28;20656;-84
2022/05/14 02:13:33;;;;;;;4.13;3.53;;;10.50;99.90;;;;;;5082082;28;20623;-85
2022/05/14 02:16:00;;;;;;;8.47;5.23;;;10.40;99.90;;;;;;5084578;28;20628;-85
2022/05/14 02:18:27;;;;;;;5.13;3.80;;;10.80;99.90;;;;;;5081553;28;20661;-85
2022/05/14 02:20:54;;;;;;;5.97;4.63;;;10.80;99.90;;;;;;5083190;28;20772;-84
2022/05/14 02:23:21;;;;;;;5.70;3.63;;;10.50;99.90;;;;;;5084008;28;21328;-86
2022/05/14 02:25:48;;;;;;;4.50;4.10;;;10.50;99.90;;;;;;5082047;28;20625;-85
2022/05/14 02:28:16;;;;;;;5.53;3.57;;;10.50;99.90;;;;;;5084272;28;20624;-86
2022/05/14 02:30:45;;;;;;;6.33;4.33;;;10.50;99.90;;;;;;5085797;28;20640;-85
2022/05/14 02:33:13;;;;;;;6.77;3.57;;;10.40;99.90;;;;;;5083026;28;20616;-84
2022/05/14 02:35:41;;;;;;;3.93;3.63;;;10.30;99.90;;;;;;5082466;28;20652;-85
2022/05/14 02:38:08;;;;;;;7.80;4.63;;;10.70;99.90;;;;;;5081981;28;20628;-85
2022/05/14 02:40:36;;;;;;;5.80;3.90;;;10.40;99.90;;;;;;5082499;28;20664;-85
2022/05/14 02:43:03;;;;;;;4.70;3.80;;;10.60;99.90;;;;;;5086540;28;20631;-85
2022/05/14 02:45:30;;;;;;;4.07;3.50;;;10.30;99.90;;;;;;5082467;28;20597;-85
2022/05/14 02:47:58;;;;;;;5.83;4.37;;;10.40;99.90;;;;;;5085478;28;20620;-85
2022/05/14 02:50:25;;;;;;;4.90;4.50;;;10.60;99.90;;;;;;5083662;28;20652;-85
2022/05/14 02:52:52;;;;;;;5.07;3.83;;;10.50;99.90;;;;;;5083598;28;20628;-85
2022/05/14 02:55:19;;;;;;;4.90;4.40;;;10.40;99.90;;;;;;5083937;28;21233;-85
2022/05/14 02:57:46;;;;;;;6.30;4.43;;;10.00;99.90;;;;;;5076887;28;20611;-84
2022/05/14 03:00:16;;;;;;;4.33;3.87;;;10.50;99.90;;;;;;5084762;28;21612;-85
2022/05/14 03:02:43;;;;;;;5.53;3.93;;;10.10;99.90;;;;;;5082709;28;21314;-85
2022/05/14 03:05:12;;;;;;;5.90;4.23;;;10.00;99.90;;;;;;5083834;28;20627;-85
2022/05/14 03:07:39;;;;;;;3.77;3.50;;;9.80;99.90;;;;;;5079436;28;20627;-84
2022/05/14 03:10:07;;;;;;;5.37;4.17;;;10.00;99.90;;;;;;5082878;28;21234;-85
2022/05/14 03:12:34;;;;;;;6.23;4.50;;;10.10;99.90;;;;;;5083247;28;20647;-85
2022/05/14 03:15:02;;;;;;;7.20;4.43;;;10.10;99.90;;;;;;5083145;28;21245;-84
2022/05/14 03:17:29;;;;;;;3.97;3.60;;;10.10;99.90;;;;;;5084556;28;21079;-84
2022/05/14 03:19:56;;;;;;;5.30;4.80;;;10.10;99.90;;;;;;5081051;28;20657;-85
2022/05/14 03:22:24;;;;;;;4.43;4.03;;;9.80;99.90;;;;;;5081704;28;20628;-84
2022/05/14 03:24:52;;;;;;;5.33;4.83;;;9.90;99.90;;;;;;5085302;28;20628;-85
2022/05/14 03:27:18;;;;;;;5.40;4.33;;;9.80;99.90;;;;;;5085182;28;21194;-82
2022/05/14 03:29:45;;;;;;;5.73;4.43;;;9.60;99.90;;;;;;5082670;28;20648;-84
2022/05/14 03:32:12;;;;;;;9.83;5.20;;;10.10;99.90;;;;;;5079429;28;20600;-85
2022/05/14 03:34:39;;;;;;;6.93;4.77;;;9.90;99.90;;;;;;5089703;28;20652;-85
2022/05/14 03:37:06;;;;;;;6.53;4.40;;;10.00;99.90;;;;;;5084241;28;20622;-85
2022/05/14 03:39:34;;;;;;;5.83;4.43;;;10.00;99.90;;;;;;5079655;28;20651;-84
2022/05/14 03:42:01;;;;;;;5.33;4.93;;;9.60;99.90;;;;;;5081579;28;20638;-86
2022/05/14 03:44:28;;;;;;;5.40;4.23;;;9.60;99.90;;;;;;5083382;28;20633;-86
2022/05/14 03:46:55;;;;;;;5.17;4.60;;;9.60;99.90;;;;;;5084071;28;20692;-84
2022/05/14 03:49:22;;;;;;;13.97;4.60;;;9.70;99.90;;;;;;5083117;28;20631;-84
2022/05/14 03:51:48;;;;;;;5.93;5.30;;;9.60;99.90;;;;;;5083485;28;21010;-86
2022/05/14 03:54:16;;;;;;;5.70;4.80;;;10.10;99.90;;;;;;5087238;28;20620;-86
2022/05/14 03:56:44;;;;;;;8.40;5.07;;;9.90;99.90;;;;;;5089524;28;20612;-86
2022/05/14 03:59:12;;;;;;;5.70;4.23;;;10.00;99.90;;;;;;5087510;28;20620;-86
2022/05/14 04:01:39;;;;;;;5.83;4.30;;;9.70;99.90;;;;;;5086577;28;20979;-85
2022/05/14 04:04:06;;;;;;;4.07;3.77;;;10.00;99.90;;;;;;5086525;28;20623;-86
2022/05/14 04:06:34;;;;;;;5.63;5.00;;;10.00;99.90;;;;;;5089164;28;21042;-86
2022/05/14 04:09:02;;;;;;;4.70;4.30;;;9.40;99.90;;;;;;5089331;28;20627;-86
2022/05/14 04:11:29;;;;;;;9.20;4.47;;;9.90;99.90;;;;;;5089143;28;21197;-86
2022/05/14 04:13:58;;;;;;;5.67;5.17;;;10.00;99.90;;;;;;5085547;28;21208;-87
2022/05/14 04:16:25;;;;;;;5.10;4.70;;;9.60;99.90;;;;;;5085842;28;21229;-86
2022/05/14 04:18:51;;;;;;;4.97;4.43;;;9.40;99.90;;;;;;5086327;28;20628;-86
2022/05/14 04:21:19;;;;;;;5.13;3.90;;;9.40;99.90;;;;;;5087091;28;20642;-87
2022/05/14 04:23:46;;;;;;;5.10;4.60;;;9.80;99.90;;;;;;5087569;28;20628;-87
2022/05/14 04:26:13;;;;;;;4.60;3.80;;;9.80;99.90;;;;;;5085686;28;20652;-86
2022/05/14 04:28:40;;;;;;;6.30;4.70;;;9.90;99.90;;;;;;5087167;28;20669;-86
2022/05/14 04:31:08;;;;;;;9.33;5.17;;;9.50;99.90;;;;;;5087756;28;20623;-86
2022/05/14 04:33:34;;;;;;;4.73;3.77;;;9.90;99.90;;;;;;5087939;28;20624;-86
2022/05/14 04:36:01;;;;;;;9.00;4.30;;;10.00;99.90;;;;;;5084068;28;20661;-86
2022/05/14 04:38:28;;;;;;;6.40;4.53;;;10.00;99.90;;;;;;5092457;28;20611;-88
2022/05/14 04:40:55;;;;;;;5.60;5.10;;;10.00;99.90;;;;;;5090572;28;20627;-85
2022/05/14 04:43:22;;;;;;;4.90;4.40;;;9.70;99.90;;;;;;5084952;28;20630;-87
2022/05/14 04:45:49;;;;;;;5.43;4.93;;;9.70;99.90;;;;;;5083735;28;20646;-86
2022/05/14 04:48:17;;;;;;;5.27;4.87;;;9.90;99.90;;;;;;5083018;28;21511;-85
2022/05/14 04:50:45;;;;;;;7.73;5.33;;;10.20;99.90;;;;;;5081582;28;21275;-86
2022/05/14 04:53:13;;;;;;;6.93;5.00;;;10.30;99.90;;;;;;5084501;28;20616;-86
2022/05/14 04:55:40;;;;;;;7.70;4.13;;;10.20;99.90;;;;;;5086459;28;20660;-86
2022/05/14 04:58:08;;;;;;;5.03;4.50;;;10.30;99.90;;;;;;5084988;28;20651;-86
2022/05/14 05:00:38;;;;;;;8.93;4.47;;;10.50;99.90;;;;;;5084091;28;20656;-88
2022/05/14 05:03:17;;;;;;;5.97;4.30;;;10.50;99.90;;;;;;5086470;28;20647;-86
2022/05/14 05:05:46;;;;;;;5.87;4.70;;;10.80;99.90;;;;;;5091160;28;20585;-88
2022/05/14 05:08:13;;;;;;;9.80;5.77;;;10.60;99.90;;;;;;5087696;28;20652;-88
2022/05/14 05:10:40;;;;;;;5.20;4.70;;;10.40;99.90;;;;;;5087302;28;20720;-88
2022/05/14 05:13:11;;;;;;;6.10;5.50;;;10.40;99.90;;;;;;5084067;28;20628;-87
2022/05/14 05:15:38;;;;;;;6.47;5.90;;;10.80;99.90;;;;;;5086207;28;20655;-87
2022/05/14 05:18:05;;;;;;;5.67;4.90;;;10.90;99.90;;;;;;5085727;28;20660;-87
2022/05/14 05:20:32;;;;;;;8.83;5.33;;;10.80;99.90;;;;;;5085241;28;20624;-86
2022/05/14 05:23:00;;;;;;;7.20;5.40;;;10.80;99.90;;;;;;5085734;28;20628;-86
2022/05/14 05:25:27;;;;;;;6.20;5.60;;;10.90;99.90;;;;;;5078217;28;20624;-85
2022/05/14 05:27:54;;;;;;;6.07;5.17;;;10.60;99.90;;;;;;5076327;28;20648;-86
2022/05/14 05:30:22;;;;;;;6.30;5.70;;;10.70;99.90;;;;;;5075433;28;20613;-86
2022/05/14 05:32:49;;;;;;;6.27;5.67;;;11.10;99.90;;;;;;5082535;28;21217;-87
2022/05/14 05:35:16;;;;;;;7.40;5.37;;;11.20;99.90;;;;;;5082608;28;20675;-86
2022/05/14 05:37:44;;;;;;;7.53;5.90;;;11.20;99.90;;;;;;5082862;28;20898;-86
2022/05/14 05:40:13;;;;;;;6.20;5.40;;;11.00;99.90;;;;;;5075085;28;20651;-85
2022/05/14 05:42:40;;;;;;;5.83;4.80;;;11.30;99.90;;;;;;5081589;28;20632;-86
2022/05/14 05:45:08;;;;;;;11.20;5.80;;;10.90;99.90;;;;;;5082692;28;20731;-85
2022/05/14 05:47:36;;;;;;;6.07;5.57;;;11.50;99.90;;;;;;5094555;28;20668;-86
2022/05/14 05:50:03;;;;;;;6.33;5.60;;;11.50;99.90;;;;;;5092770;28;20633;-85
2022/05/14 05:52:32;;;;;;;5.30;4.80;;;11.70;99.90;;;;;;5089862;28;20624;-85
2022/05/14 05:57:52;;;;;;;5.43;4.93;;;11.90;99.90;;;;;;5086822;28;20715;-85
2022/05/14 06:00:22;;;;;;;6.97;4.47;;;12.10;99.90;;;;;;5094747;28;20712;-85
2022/05/14 06:02:49;;;;;;;6.20;5.57;;;12.20;99.90;;;;;;5086111;28;20636;-86
2022/05/14 06:05:17;;;;;;;6.20;5.60;;;12.40;99.90;;;;;;5084688;28;20669;-85
2022/05/14 06:07:44;;;;;;;5.10;4.60;;;12.20;99.90;;;;;;5092878;28;20655;-85
2022/05/14 06:10:18;;;;;;;5.50;5.00;;;12.50;99.90;;;;;;5080559;28;20609;-87
2022/05/14 06:12:46;;;;;;;5.93;4.93;;;12.30;99.90;;;;;;5080874;28;20624;-86
2022/05/14 06:15:17;;;;;;;6.17;5.10;;;12.80;99.90;;;;;;5079810;28;20699;-85
2022/05/14 06:17:44;;;;;;;7.00;4.97;;;12.90;99.90;;;;;;5088331;28;20648;-85
2022/05/14 06:20:14;;;;;;;5.50;4.87;;;13.00;99.90;;;;;;5085123;28;20625;-85
2022/05/14 06:22:43;;;;;;;5.17;4.67;;;13.10;99.90;;;;;;5081354;28;21048;-87
2022/05/14 06:25:10;;;;;;;6.00;4.20;;;13.20;99.90;;;;;;5081697;28;20624;-86
2022/05/14 06:27:37;;;;;;;7.23;4.20;;;13.40;99.90;;;;;;5084460;28;21289;-87
2022/05/14 06:30:07;;;;;;;5.30;4.40;;;13.30;99.90;;;;;;5087895;28;20627;-86
2022/05/14 06:32:36;;;;;;;6.20;4.70;;;13.40;99.90;;;;;;5083367;28;20628;-86
2022/05/14 06:35:03;;;;;;;5.30;4.03;;;13.60;99.90;;;;;;5082082;28;21823;-87
2022/05/14 06:37:31;;;;;;;5.57;4.43;;;13.60;99.90;;;;;;5083720;28;20648;-86
2022/05/14 06:39:58;;;;;;;5.30;4.67;;;13.80;99.90;;;;;;5075330;28;21191;-86
2022/05/14 06:42:25;;;;;;;5.30;4.17;;;13.90;99.90;;;;;;5085206;28;20636;-86
2022/05/14 06:44:52;;;;;;;5.57;4.90;;;14.00;99.90;;;;;;5077464;28;20635;-86
2022/05/14 06:47:19;;;;;;;4.40;4.00;;;14.00;99.90;;;;;;5080058;28;20651;-85
2022/05/14 06:49:47;;;;;;;6.03;4.70;;;14.10;99.90;;;;;;5076673;28;20632;-86
2022/05/14 06:52:17;;;;;;;4.70;4.13;;;14.20;99.90;;;;;;5078151;28;20625;-86
2022/05/14 06:54:45;;;;;;;4.90;4.10;;;14.40;99.90;;;;;;5080173;28;20631;-89
2022/05/14 06:57:14;;;;;;;6.57;3.27;;;14.50;99.90;;;;;;5076195;28;20672;-87
2022/05/14 06:59:42;;;;;;;4.70;4.27;;;14.60;99.90;;;;;;5084069;28;20620;-86
2022/05/14 07:02:13;;;;;;;4.90;3.60;;;14.60;99.90;;;;;;5081182;28;20637;-86
2022/05/14 07:07:26;;;;;;;3.53;3.23;;;14.80;99.90;;;;;;5079157;28;20719;-87
2022/05/14 07:09:55;;;;;;;4.30;3.50;;;14.90;99.90;;;;;;5075580;28;20632;-87
2022/05/14 07:12:25;;;;;;;5.47;4.33;;;15.10;99.90;;;;;;5081534;28;20624;-87
2022/05/14 07:14:52;;;;;;;4.73;3.67;;;15.20;99.90;;;;;;5076115;28;23175;-87
2022/05/14 07:17:19;;;;;;;7.87;3.93;;;15.30;99.90;;;;;;5078159;28;21176;-87
2022/05/14 07:19:46;;;;;;;6.53;4.17;;;15.40;99.90;;;;;;5081356;28;20631;-87
2022/05/14 07:22:14;;;;;;;6.70;3.23;;;15.50;99.90;;;;;;5080169;28;20628;-86
2022/05/14 07:24:43;;;;;;;4.00;3.57;;;15.60;99.90;;;;;;5085942;28;20612;-87
2022/05/14 07:27:11;;;;;;;3.87;3.27;;;15.70;99.90;;;;;;5075577;28;20647;-87
2022/05/14 07:29:40;;;;;;;4.73;3.57;;;15.80;99.90;;;;;;5082908;28;20639;-87
2022/05/14 07:32:10;;;;;;;4.17;3.40;;;15.90;99.90;;;;;;5087347;28;20689;-86
2022/05/14 07:34:38;;;;;;;3.97;3.10;;;16.10;99.90;;;;;;5086492;28;20857;-87
2022/05/14 07:37:07;;;;;;;5.30;3.03;;;16.20;99.90;;;;;;5084675;28;20700;-87
2022/05/14 07:39:40;;;;;;;4.07;2.77;;;16.30;99.90;;;;;;5084178;28;20620;-88
2022/05/14 07:42:14;;;;;;;7.70;2.70;;;16.30;99.90;;;;;;5084652;28;20640;-88
2022/05/14 07:44:45;;;;;;;6.83;2.60;;;16.50;99.90;;;;;;5083497;28;20728;-88
2022/05/14 07:47:13;;;;;;;7.40;3.23;;;16.60;99.90;;;;;;5081365;28;20655;-88
2022/05/14 07:49:41;;;;;;;3.57;2.90;;;16.80;99.90;;;;;;5081218;28;20617;-87
2022/05/14 07:52:09;;;;;;;4.73;2.67;;;16.90;99.90;;;;;;5081863;28;20621;-87
2022/05/14 07:54:36;;;;;;;3.67;2.73;;;17.00;99.90;;;;;;5076509;28;20628;-88
2022/05/14 07:57:06;;;;;;;3.03;1.90;;;17.20;99.90;;;;;;5083803;28;21277;-88
2022/05/14 07:59:35;;;;;;;2.60;1.33;;;17.20;99.90;;;;;;5073293;28;20652;-88
2022/05/14 08:02:04;;;;;;;2.83;2.00;;;17.30;99.90;;;;;;5079003;28;20656;-86
2022/05/14 08:04:31;;;;;;;2.20;1.40;;;17.40;99.90;;;;;;5082597;28;21015;-87
2022/05/14 08:06:59;;;;;;;4.37;2.40;;;17.60;99.90;;;;;;5084009;28;21316;-87
2022/05/14 08:09:26;;;;;;;2.53;1.00;;;17.70;99.90;;;;;;5086321;28;20625;-87
2022/05/14 08:11:53;;;;;;;3.73;1.40;;;17.80;99.90;;;;;;5086492;28;20643;-87
2022/05/14 08:14:20;;;;;;;4.77;1.13;;;17.90;98.40;;;;;;5079774;28;20656;-87
2022/05/14 08:16:48;;;;;;;2.93;1.33;;;18.00;98.50;;;;;;5081218;28;20728;-86
2022/05/14 08:19:15;;;;;;;3.13;1.33;;;18.20;99.40;;;;;;5083079;28;21238;-87
2022/05/14 08:24:34;;;;;;;3.13;1.77;;;18.50;97.80;;;;;;5082347;28;21223;-87
2022/05/14 08:27:05;;;;;;;4.50;2.40;;;18.70;98.40;;;;;;5084967;28;21291;-87
2022/05/14 08:29:33;;;;;;;3.07;1.37;;;18.80;93.20;;;;;;5085307;28;20624;-87
2022/05/14 08:32:02;;;;;;;2.00;1.27;;;18.90;92.70;;;;;;5084719;28;20982;-87
2022/05/14 08:34:29;;;;;;;3.20;0.83;;;19.10;90.00;;;;;;5081145;28;20616;-87
2022/05/14 08:36:56;;;;;;;2.00;0.93;;;19.10;91.00;;;;;;5085656;28;20675;-87
2022/05/14 08:39:24;;;;;;;5.83;1.70;;;19.20;90.30;;;;;;5085909;28;20630;-88
2022/05/14 08:41:53;;;;;;;2.03;1.03;;;19.40;91.70;;;;;;5074465;28;21213;-89
2022/05/14 08:44:23;;;;;;;3.63;1.00;;;19.50;90.80;;;;;;5079317;28;20635;-88
2022/05/14 08:46:55;;;;;;;5.00;1.60;;;19.50;91.00;;;;;;5081385;28;21184;-88
2022/05/14 08:49:32;;;;;;;1.97;1.20;;;19.40;91.40;;;;;;5086363;28;20616;-88
2022/05/14 08:52:00;;;;;;;4.47;1.73;;;19.50;91.10;;;;;;5087121;28;20620;-87
2022/05/14 08:54:27;;;;;;;2.93;1.50;;;19.50;89.50;;;;;;5082964;28;20647;-88
2022/05/14 08:57:02;;;;;;;2.40;1.33;;;19.60;90.30;;;;;;5084548;28;21053;-88
2022/05/14 08:59:47;;;;;;;2.73;1.33;;;19.70;90.20;;;;;;5084928;28;20650;-88
2022/05/14 09:02:16;;;;;;;4.67;1.57;;;19.80;90.70;;;;;;5079849;28;20747;-88
2022/05/14 09:04:45;;;;;;;4.80;1.27;;;19.80;90.20;;;;;;5084854;28;20632;-88
2022/05/14 09:07:13;;;;;;;3.47;1.33;;;19.80;89.70;;;;;;5077773;28;21299;-87
2022/05/14 09:09:51;;;;;;;3.80;1.70;;;19.90;90.60;;;;;;5077841;28;21222;-88
2022/05/14 09:12:21;;;;;;;3.27;1.73;;;20.00;92.10;;;;;;5080384;28;20632;-87
2022/05/14 09:14:54;;;;;;;3.37;1.50;;;20.20;93.50;;;;;;5080701;28;20604;-87
2022/05/14 09:17:23;;;;;;;3.70;1.93;;;20.20;91.80;;;;;;5081423;28;21513;-87
2022/05/14 09:19:53;;;;;;;2.60;1.50;;;20.30;93.70;;;;;;5080058;28;20638;-88
2022/05/14 09:22:29;;;;;;;3.70;2.13;;;20.40;92.60;;;;;;5082049;28;20589;-87
2022/05/14 09:25:06;;;;;;;2.40;1.77;;;20.50;91.50;;;;;;5083014;28;20627;-87
2022/05/14 09:27:39;;;;;;;3.63;2.17;;;20.50;92.40;;;;;;5083968;28;20649;-87
2022/05/14 09:30:10;;;;;;;4.83;2.03;;;20.70;93.90;;;;;;5081269;28;21162;-87
2022/05/14 09:32:42;;;;;;;4.77;2.17;;;20.70;91.90;;;;;;5085408;28;20636;-87
2022/05/14 09:35:14;;;;;;;2.23;1.80;;;20.80;93.60;;;;;;5083896;28;20612;-87
2022/05/14 09:37:42;;;;;;;5.13;1.93;;;20.90;92.80;;;;;;5081032;28;21542;-87
2022/05/14 09:40:19;;;;;;;2.10;1.80;;;20.90;90.50;;;;;;5083160;28;20624;-87
2022/05/14 09:42:48;;;;;;;3.50;2.10;;;21.00;90.20;;;;;;5081925;28;21393;-88
2022/05/14 09:45:25;;;;;;;4.47;1.37;;;21.00;91.60;;;;;;5083336;28;20676;-87
2022/05/14 09:47:52;;;;;;;2.23;1.30;;;21.10;92.10;;;;;;5083502;28;20652;-87
2022/05/14 09:50:23;;;;;;;2.53;1.50;;;21.20;93.40;;;;;;5083993;28;20624;-88
2022/05/14 09:53:00;;;;;;;4.17;1.67;;;21.30;91.90;;;;;;5072568;28;21146;-87
2022/05/14 09:55:55;;;;;;;4.47;1.70;;;21.40;90.40;;;;;;5077686;28;21188;-88
2022/05/14 09:58:31;;;;;;;2.57;1.63;;;21.60;91.50;;;;;;5079732;28;20620;-88
2022/05/14 10:01:04;;;;;;;4.43;2.03;;;21.80;91.60;;;;;;5081060;28;20616;-89
2022/05/14 10:04:01;;;;;;;2.30;1.30;;;21.90;90.30;;;;;;5080656;28;20628;-88
2022/05/14 10:06:39;;;;;;;7.20;2.20;;;21.90;88.10;;;;;;5076453;28;21308;-88
2022/05/14 10:09:21;;;;;;;4.83;2.17;;;21.70;87.10;;;;;;5074335;28;20604;-86
2022/05/14 10:11:55;;;;;;;4.80;2.17;;;21.60;86.00;;;;;;5080198;28;20612;-87
2022/05/14 10:14:35;;;;;;;3.07;2.07;;;21.60;87.00;;;;;;5076745;28;20973;-86
2022/05/14 10:17:18;;;;;;;3.00;1.80;;;21.60;90.40;;;;;;5081662;28;20746;-87
2022/05/14 10:20:13;;;;;;;3.83;2.33;;;21.80;90.60;;;;;;5078190;28;20980;-87
2022/05/14 10:28:39;;;;;;;2.23;1.47;;;22.10;87.50;;;;;;5079838;28;20589;-86
2022/05/14 10:31:13;;;;;;;2.77;1.53;;;22.30;87.10;;;;;;5079813;28;20627;-87
2022/05/14 10:33:40;;;;;;;5.50;3.50;;;22.50;88.40;;;;;;5082230;28;20643;-87
2022/05/14 10:36:16;;;;;;;2.20;1.67;;;22.80;85.60;;;;;;5081308;28;20741;-88
2022/05/14 10:38:47;;;;;;;4.60;2.00;;;22.90;79.00;;;;;;5081457;28;20627;-88
2022/05/14 10:41:27;;;;;;;5.90;4.40;;;23.10;80.80;;;;;;5080780;28;20628;-87
2022/05/14 10:43:57;;;;;;;4.67;1.97;;;23.40;81.10;;;;;;5081990;28;20661;-87
2022/05/14 10:46:27;;;;;;;1.90;1.70;;;23.60;77.10;;;;;;5082373;28;20667;-88
2022/05/14 10:48:59;;;;;;;2.37;1.87;;;23.70;72.80;;;;;;5079142;28;21660;-88
2022/05/14 10:51:28;;;;;;;4.90;2.50;;;23.80;73.70;;;;;;5079372;28;20624;-87
2022/05/14 10:53:58;;;;;;;2.90;1.67;;;23.90;72.30;;;;;;5071955;28;20640;-87
2022/05/14 10:56:28;;;;;;;2.90;1.47;;;24.10;71.30;;;;;;5076060;28;20672;-88
2022/05/14 10:59:04;;;;;;;3.20;2.03;;;24.30;69.10;;;;;;5076688;28;20620;-88
2022/05/14 11:01:35;;;;;;;4.47;2.20;;;24.40;68.90;;;;;;5075841;28;20638;-87
2022/05/14 11:04:14;;;;;;;3.73;2.27;;;24.50;69.00;;;;;;5072032;28;20636;-88
2022/05/14 11:06:51;;;;;;;4.87;1.93;;;24.80;75.60;;;;;;5077549;28;20647;-88
2022/05/14 11:09:22;;;;;;;2.30;1.90;;;25.30;73.30;;;;;;5077146;28;20638;-87
2022/05/14 11:11:55;;;;;;;2.83;2.17;;;25.40;71.40;;;;;;5080022;28;21178;-87
2022/05/14 11:14:22;;;;;;;2.87;1.60;;;25.40;70.00;;;;;;5079865;28;20648;-88
2022/05/14 11:16:52;;;;;;;4.10;1.83;;;25.70;72.60;;;;;;5076033;28;21357;-88
2022/05/14 11:19:27;;;;;;;2.37;1.83;;;26.00;73.10;;;;;;5076909;28;21200;-88
2022/05/14 11:21:55;;;;;;;1.83;1.73;;;26.30;67.40;;;;;;5083606;28;21333;-87
2022/05/14 11:24:33;;;;;;;7.00;2.30;;;26.60;66.80;;;;;;5079290;28;21256;-88
2022/05/14 11:27:00;;;;;;;3.47;2.60;;;26.80;64.40;;;;;;5078507;28;21265;-88
2022/05/14 11:29:31;;;;;;;3.60;2.10;;;26.90;64.00;;;;;;5078347;28;20621;-87
2022/05/14 11:32:06;;;;;;;4.10;1.87;;;27.00;61.80;;;;;;5081266;28;21233;-87
2022/05/14 11:34:33;;;;;;;3.50;2.00;;;26.90;61.30;;;;;;5076642;28;20639;-87
2022/05/14 11:37:02;;;;;;;8.93;2.40;;;26.80;59.50;;;;;;5076660;28;20681;-87
2022/05/14 11:39:33;;;;;;;2.80;2.33;;;27.10;60.20;;;;;;5079829;28;20652;-86
2022/05/14 11:42:28;;;;;;;2.80;2.30;;;27.30;58.00;;;;;;5077028;28;20684;-87
2022/05/14 11:45:03;;;;;;;4.33;2.00;;;27.50;56.90;;;;;;5079354;28;21245;-86
2022/05/14 11:47:53;;;;;;;5.23;1.60;;;27.30;56.80;;;;;;5079701;28;20649;-85
2022/05/14 11:50:26;;;;;;;3.33;2.07;;;27.60;56.60;;;;;;5071557;28;20645;-89
2022/05/14 11:53:04;;;;;;;5.00;2.10;;;28.20;58.20;;;;;;5076613;28;20642;-88
2022/05/14 11:55:40;;;;;;;2.97;1.77;;;28.70;56.10;;;;;;5078953;28;20627;-88
2022/05/14 11:58:11;;;;;;;5.27;2.37;;;28.80;53.00;;;;;;5075716;28;20698;-88
2022/05/14 12:00:39;;;;;;;2.33;1.10;;;28.70;52.10;;;;;;5077609;28;20624;-88
2022/05/14 12:03:14;;;;;;;4.73;1.70;;;28.40;53.10;;;;;;5079979;28;20624;-87
2022/05/14 12:05:46;;;;;;;2.67;1.97;;;28.40;51.10;;;;;;5073542;28;21034;-88
2022/05/14 12:08:41;;;;;;;4.27;2.03;;;28.30;50.70;;;;;;5082958;28;20644;-87
2022/05/14 12:11:25;;;;;;;4.73;2.00;;;28.50;50.70;;;;;;5076750;28;21193;-87
2022/05/14 12:14:00;;;;;;;2.33;1.40;;;29.00;51.20;;;;;;5085994;28;21401;-87
2022/05/14 12:16:29;;;;;;;3.10;1.67;;;29.40;50.30;;;;;;5083581;28;20652;-88
2022/05/14 12:18:57;;;;;;;2.50;1.70;;;29.80;49.10;;;;;;5083020;28;20660;-87
2022/05/14 12:21:24;;;;;;;2.30;1.73;;;29.60;48.50;;;;;;5084269;28;20624;-87
2022/05/14 12:23:51;;;;;;;1.93;1.50;;;29.40;47.80;;;;;;5084088;28;20742;-88
2022/05/14 12:26:25;;;;;;;4.27;2.10;;;29.90;47.40;;;;;;5082013;28;20663;-88
2022/05/14 12:28:53;;;;;;;5.23;2.13;;;29.90;46.50;;;;;;5079911;28;20619;-88
2022/05/14 12:34:13;;;;;;;3.73;1.40;;;30.50;46.20;;;;;;5077174;28;20577;-87
2022/05/14 12:36:44;;;;;;;2.97;1.57;;;30.30;45.50;;;;;;5072594;28;20644;-88
2022/05/14 12:39:14;;;;;;;3.60;1.50;;;30.60;44.80;;;;;;5075459;28;20623;-87
2022/05/14 12:41:48;;;;;;;2.93;1.50;;;30.30;44.30;;;;;;5080262;28;20831;-88
2022/05/14 12:44:18;;;;;;;2.40;1.47;;;30.50;45.10;;;;;;5079168;28;20624;-87
2022/05/14 12:46:47;;;;;;;2.50;1.17;;;30.70;44.60;;;;;;5078477;28;21758;-87
2022/05/14 12:49:20;;;;;;;2.10;1.47;;;30.90;45.10;;;;;;5079211;28;20628;-88
2022/05/14 12:51:52;;;;;;;3.87;1.60;;;31.20;43.90;;;;;;5076533;28;20607;-87
2022/05/14 12:54:25;;;;;;;2.57;1.70;;;31.20;42.70;;;;;;5076149;28;21277;-88
2022/05/14 12:56:56;;;;;;;2.73;1.63;;;31.10;42.60;;;;;;5079912;28;20663;-87
2022/05/14 12:59:24;;;;;;;2.40;1.33;;;31.10;42.80;;;;;;5079003;28;21146;-88
2022/05/14 13:01:56;;;;;;;6.23;1.77;;;31.20;43.10;;;;;;5076259;28;20643;-88
2022/05/14 13:04:29;;;;;;;4.00;1.40;;;31.60;43.70;;;;;;5082153;28;20659;-88
2022/05/14 13:07:01;;;;;;;5.40;1.70;;;31.90;42.90;;;;;;5073654;28;20651;-87
2022/05/14 13:09:29;;;;;;;3.03;1.20;;;32.00;41.20;;;;;;5077077;28;20620;-87
2022/05/14 13:11:59;;;;;;;3.60;1.40;;;31.70;40.60;;;;;;5075493;28;21212;-88
2022/05/14 13:14:29;;;;;;;3.37;1.50;;;31.50;40.80;;;;;;5077710;28;20632;-88
2022/05/14 13:16:58;;;;;;;3.90;1.77;;;31.80;41.80;;;;;;5074399;28;20636;-88
2022/05/14 13:19:36;;;;;;;4.53;1.83;;;31.90;40.80;;;;;;5076761;28;20635;-86
2022/05/14 13:22:05;;;;;;;3.83;1.57;;;32.00;40.40;;;;;;5075791;28;20681;-88